Time;durP1;ratioP1;P1;durP2;ratioP2;P2;SDS_P1;SDS_P2;PMS_P1;PMS_P2;Temp;Humidity;BMP_temperature;BMP_pressure;BME280_temperature;BME280_humidity;BME280_pressure;Samples;Min_cycle;Max_cycle;Signal;HPM_P1;HPM_P2
2023/08/15 00:01:32;;;;;;;10.57;8.13;;;;;;;17.36;94.30;99730.16;4974556;28;20068;-76
2023/08/15 00:03:58;;;;;;;13.55;8.75;;;;;;;17.33;94.07;99729.59;4960737;28;20054;-76
2023/08/15 00:06:26;;;;;;;15.18;8.35;;;;;;;17.29;94.65;99734.44;4974937;28;20050;-73
2023/08/15 00:08:54;;;;;;;14.55;8.23;;;;;;;17.29;94.87;99736.28;4978930;28;20045;-69
2023/08/15 00:11:45;;;;;;;12.00;7.55;;;;;;;17.35;95.06;99728.44;4976432;28;20045;-68
2023/08/15 00:14:11;;;;;;;10.48;8.15;;;;;;;17.24;95.22;99728.66;4949595;28;20049;-71
2023/08/15 00:16:36;;;;;;;13.90;8.50;;;;;;;17.22;95.49;99733.34;4958784;28;20057;-76
2023/08/15 00:19:27;;;;;;;11.85;8.32;;;;;;;17.20;95.89;99726.41;4960092;28;20408;-69
2023/08/15 00:21:55;;;;;;;12.52;7.65;;;;;;;17.19;95.93;99733.63;4959581;28;20046;-69
2023/08/15 00:24:22;;;;;;;13.07;9.05;;;;;;;17.16;96.06;99736.63;4959427;28;20038;-73
2023/08/15 00:27:11;;;;;;;13.35;9.05;;;;;;;17.14;95.85;99751.25;4969515;28;20061;-74
2023/08/15 00:29:42;;;;;;;17.17;8.32;;;;;;;17.13;95.98;99734.25;4977478;28;20060;-73
2023/08/15 00:32:07;;;;;;;14.38;8.27;;;;;;;17.13;96.45;99728.00;4979142;28;20052;-74
2023/08/15 00:34:32;;;;;;;13.65;7.57;;;;;;;17.09;96.70;99727.44;4969441;28;20408;-73
2023/08/15 00:36:59;;;;;;;12.40;8.45;;;;;;;17.07;96.28;99756.38;4950129;28;20053;-76
2023/08/15 00:39:25;;;;;;;14.77;8.15;;;;;;;17.05;96.37;99726.88;4958435;28;20064;-76
2023/08/15 00:41:55;;;;;;;10.40;8.20;;;;;;;17.05;96.32;99726.88;4941666;28;20046;-72
2023/08/15 00:44:20;;;;;;;12.25;8.40;;;;;;;17.02;96.42;99712.88;4958790;28;20061;-76
2023/08/15 00:46:46;;;;;;;14.43;7.85;;;;;;;16.99;96.53;99732.88;4958274;28;20501;-73
2023/08/15 00:49:15;;;;;;;17.13;8.88;;;;;;;16.96;96.73;99722.41;4959611;28;20042;-77
2023/08/15 00:51:41;;;;;;;16.90;8.02;;;;;;;16.96;97.10;99753.88;4960468;28;20048;-76
2023/08/15 00:54:09;;;;;;;15.40;8.30;;;;;;;16.95;97.00;99727.94;4961787;28;20042;-76
2023/08/15 00:57:24;;;;;;;11.90;7.72;;;;;;;17.01;97.42;99735.44;4955535;28;20069;-70
2023/08/15 00:59:52;;;;;;;15.23;9.43;;;;;;;16.94;97.34;99734.31;4972522;28;20049;-70
2023/08/15 01:02:22;;;;;;;13.82;8.50;;;;;;;16.92;97.25;99752.47;4957399;28;20061;-70
2023/08/15 01:04:50;;;;;;;13.40;9.32;;;;;;;16.90;97.20;99739.16;4954556;28;20427;-70
2023/08/15 01:07:19;;;;;;;19.58;8.88;;;;;;;16.90;97.25;99735.63;4971988;28;20042;-71
2023/08/15 01:09:45;;;;;;;12.40;7.80;;;;;;;16.88;97.57;99741.16;4974122;28;20041;-71
2023/08/15 01:12:36;;;;;;;20.00;8.90;;;;;;;16.95;97.92;99736.84;4950848;28;20038;-72
2023/08/15 01:15:04;;;;;;;11.68;8.10;;;;;;;16.89;97.86;99734.75;4966487;28;20050;-73
2023/08/15 01:17:55;;;;;;;13.88;8.68;;;;;;;16.94;98.38;99740.53;4972542;28;20053;-71
2023/08/15 01:20:27;;;;;;;13.10;8.30;;;;;;;16.92;98.12;99745.25;4969989;28;20057;-71
2023/08/15 01:22:53;;;;;;;11.02;8.95;;;;;;;16.89;98.40;99742.84;4972240;28;20038;-71
2023/08/15 01:25:19;;;;;;;11.00;8.05;;;;;;;16.87;98.26;99693.66;4976811;28;20061;-72
2023/08/15 01:27:49;;;;;;;13.43;8.20;;;;;;;16.87;98.09;99746.69;4972611;28;20531;-72
2023/08/15 01:30:20;;;;;;;13.02;7.75;;;;;;;16.87;97.94;99739.44;4955016;28;20505;-72
2023/08/15 01:32:58;;;;;;;12.63;8.68;;;;;;;16.87;97.71;99743.97;4968543;28;20039;-71
2023/08/15 01:35:37;;;;;;;14.23;7.85;;;;;;;16.90;97.78;99733.78;4975427;28;20045;-72
2023/08/15 01:38:19;;;;;;;12.05;7.88;;;;;;;16.90;97.84;99766.09;4972025;28;20400;-72
2023/08/15 01:40:49;;;;;;;14.25;8.40;;;;;;;16.87;97.93;99766.38;4940858;28;20050;-72
2023/08/15 01:43:18;;;;;;;12.95;8.43;;;;;;;16.86;97.92;99726.13;4955092;28;20026;-70
2023/08/15 01:46:11;;;;;;;15.90;9.07;;;;;;;16.85;97.75;99740.59;4970934;28;20064;-70
2023/08/15 01:49:01;;;;;;;13.48;8.40;;;;;;;16.85;97.83;99727.97;4973378;28;20046;-70
2023/08/15 01:51:28;;;;;;;15.25;8.30;;;;;;;16.85;97.73;99737.88;4969447;28;20528;-69
2023/08/15 01:53:54;;;;;;;12.70;7.95;;;;;;;16.82;97.67;99730.94;4969389;28;20053;-69
2023/08/15 01:56:19;;;;;;;14.68;8.27;;;;;;;16.82;97.59;99752.50;4939128;28;20065;-70
2023/08/15 01:58:45;;;;;;;11.63;8.13;;;;;;;16.79;97.61;99754.66;4959078;28;20516;-69
2023/08/15 02:01:14;;;;;;;13.05;8.18;;;;;;;16.77;97.28;99727.88;4959269;28;20042;-70
2023/08/15 02:03:40;;;;;;;14.82;9.02;;;;;;;16.78;97.29;99743.03;4958943;28;20440;-70
2023/08/15 02:06:29;;;;;;;14.63;8.82;;;;;;;16.79;97.65;99731.25;4974487;28;20053;-70
2023/08/15 02:08:56;;;;;;;12.40;8.10;;;;;;;16.83;97.59;99753.34;4951842;28;20060;-70
2023/08/15 02:11:26;;;;;;;10.90;8.07;;;;;;;16.84;98.27;99739.72;4971459;28;20077;-70
2023/08/15 02:13:58;;;;;;;11.75;7.88;;;;;;;16.88;97.94;99746.53;4971596;28;20050;-71
2023/08/15 02:16:26;;;;;;;12.93;8.70;;;;;;;16.89;98.13;99756.31;4969896;28;20060;-70
2023/08/15 02:18:55;;;;;;;12.05;7.65;;;;;;;16.90;98.18;99741.84;4970186;28;20052;-68
2023/08/15 02:21:24;;;;;;;12.38;8.43;;;;;;;16.90;97.73;99743.69;4973647;28;20056;-69
2023/08/15 02:23:49;;;;;;;12.13;8.48;;;;;;;16.92;97.40;99769.50;4993779;28;20034;-69
2023/08/15 02:26:18;;;;;;;12.48;8.60;;;;;;;16.92;97.34;99741.72;4976879;28;20066;-70
2023/08/15 02:28:44;;;;;;;16.20;8.88;;;;;;;16.97;97.24;99740.25;4995823;28;20052;-69
2023/08/15 02:31:10;;;;;;;13.45;8.05;;;;;;;17.00;97.45;99745.34;4951684;28;20057;-71
2023/08/15 02:33:37;;;;;;;11.10;7.43;;;;;;;17.04;97.48;99738.66;4976813;28;20061;-70
2023/08/15 02:36:07;;;;;;;12.23;7.80;;;;;;;17.10;97.13;99750.69;4956759;28;20137;-71
2023/08/15 02:39:03;;;;;;;12.43;8.15;;;;;;;17.18;96.57;99745.41;4950653;28;20053;-72
2023/08/15 02:41:32;;;;;;;12.15;8.57;;;;;;;17.24;96.59;99769.06;4955151;28;20046;-71
2023/08/15 02:44:25;;;;;;;9.88;8.32;;;;;;;17.32;96.25;99755.69;4968908;28;20046;-71
2023/08/15 02:46:52;;;;;;;11.82;8.05;;;;;;;17.38;95.82;99746.19;4987565;28;20056;-71
2023/08/15 02:49:19;;;;;;;10.23;7.43;;;;;;;17.44;95.29;99737.47;4972304;28;20050;-70
2023/08/15 02:54:37;;;;;;;10.90;7.97;;;;;;;17.69;94.75;99741.31;4971003;28;20046;-71
2023/08/15 02:57:03;;;;;;;12.55;7.35;;;;;;;17.83;94.51;99745.34;4973729;28;20052;-72
2023/08/15 02:59:28;;;;;;;9.93;7.15;;;;;;;17.97;93.74;99744.78;4975353;28;20052;-71
2023/08/15 03:01:54;;;;;;;12.63;7.80;;;;;;;18.08;93.47;99728.38;4958895;28;20053;-71
2023/08/15 03:04:20;;;;;;;13.43;8.40;;;;;;;18.23;92.62;99750.25;4974187;28;20041;-77
2023/08/15 03:06:47;;;;;;;13.55;7.82;;;;;;;18.36;91.76;99751.56;4959159;28;20452;-72
2023/08/15 03:09:14;;;;;;;9.23;7.18;;;;;;;18.48;90.97;99744.91;4956032;28;20045;-75
2023/08/15 03:11:43;;;;;;;11.65;6.90;;;;;;;18.64;89.66;99746.03;4960190;28;20046;-77
2023/08/15 03:14:15;;;;;;;9.63;6.68;;;;;;;18.72;89.01;99741.56;4958996;28;20046;-74
2023/08/15 03:16:41;;;;;;;10.38;6.97;;;;;;;18.81;88.14;99751.41;4960676;28;20056;-73
2023/08/15 03:19:08;;;;;;;13.77;7.05;;;;;;;18.94;87.67;99739.31;4974998;28;20042;-72
2023/08/15 03:21:59;;;;;;;13.95;6.80;;;;;;;19.07;86.87;99746.00;4974547;28;20420;-73
2023/08/15 03:24:28;;;;;;;10.93;7.22;;;;;;;19.20;86.30;99740.09;4958268;28;20050;-72
2023/08/15 03:26:57;;;;;;;16.65;7.03;;;;;;;19.29;85.40;99755.38;4974595;28;20424;-72
2023/08/15 03:29:23;;;;;;;16.77;7.57;;;;;;;19.33;83.78;99762.13;4974476;28;20416;-72
2023/08/15 03:31:55;;;;;;;10.25;7.32;;;;;;;19.35;83.64;99753.84;4942873;28;20053;-72
2023/08/15 03:34:26;;;;;;;13.60;7.45;;;;;;;19.44;83.76;99758.28;4974488;28;20046;-72
2023/08/15 03:36:52;;;;;;;9.88;7.22;;;;;;;19.54;83.74;99749.06;4974557;28;20056;-72
2023/08/15 03:39:17;;;;;;;12.15;7.63;;;;;;;19.68;83.33;99744.88;4974472;28;20052;-72
2023/08/15 03:41:45;;;;;;;13.82;7.60;;;;;;;19.78;82.58;99755.53;4974430;28;20412;-73
2023/08/15 03:44:13;;;;;;;18.23;7.10;;;;;;;19.94;82.33;99753.72;4975441;28;20088;-72
2023/08/15 03:46:40;;;;;;;14.65;7.50;;;;;;;20.09;81.95;99751.19;4975446;28;20042;-72
2023/08/15 03:49:14;;;;;;;15.73;6.75;;;;;;;20.26;80.83;99739.38;4974832;28;20145;-73
2023/08/15 03:51:39;;;;;;;9.93;7.30;;;;;;;20.46;80.33;99739.06;4975092;28;20038;-73
2023/08/15 03:54:05;;;;;;;12.90;6.60;;;;;;;20.68;79.48;99738.34;4958110;28;20796;-72
2023/08/15 03:56:30;;;;;;;13.23;7.55;;;;;;;20.93;78.84;99742.69;4975428;28;20060;-73
2023/08/15 03:58:57;;;;;;;12.27;6.65;;;;;;;21.16;77.84;99752.78;4957861;28;20440;-73
2023/08/15 04:01:25;;;;;;;13.10;5.82;;;;;;;21.46;76.47;99743.88;4957912;28;20058;-73
2023/08/15 04:03:52;;;;;;;11.57;6.75;;;;;;;21.65;75.65;99745.34;4974070;28;20048;-73
2023/08/15 04:06:17;;;;;;;10.65;6.85;;;;;;;21.79;73.59;99744.53;4974180;28;20049;-73
2023/08/15 04:08:46;;;;;;;9.80;6.85;;;;;;;21.91;73.44;99745.81;4941310;28;20050;-73
2023/08/15 04:11:14;;;;;;;13.90;6.38;;;;;;;22.03;72.82;99758.00;4974265;28;20053;-73
2023/08/15 04:13:41;;;;;;;8.52;6.32;;;;;;;22.16;72.66;99751.97;4974343;28;20046;-74
2023/08/15 04:16:32;;;;;;;10.27;5.82;;;;;;;22.44;71.87;99754.97;4957458;28;20072;-74
2023/08/15 04:19:27;;;;;;;8.90;5.78;;;;;;;22.48;71.25;99759.00;4973910;28;20042;-75
2023/08/15 04:21:53;;;;;;;13.52;6.70;;;;;;;22.61;71.12;99771.97;4957205;28;20054;-74
2023/08/15 04:24:19;;;;;;;11.90;5.70;;;;;;;22.84;70.20;99761.09;4957265;28;20057;-74
2023/08/15 04:26:47;;;;;;;6.65;5.60;;;;;;;23.06;68.77;99754.72;4973426;28;20061;-75
2023/08/15 04:30:02;;;;;;;7.32;5.82;;;;;;;23.40;67.14;99763.16;4957114;28;20120;-74
2023/08/15 04:32:30;;;;;;;9.00;6.13;;;;;;;23.65;66.52;99749.28;4973815;28;20380;-72
2023/08/15 04:37:52;;;;;;;8.93;5.50;;;;;;;24.14;63.81;99754.84;4973723;28;20476;-72
2023/08/15 04:40:29;;;;;;;9.13;5.22;;;;;;;24.41;63.06;99755.97;4975197;28;20052;-74
2023/08/15 04:45:47;;;;;;;7.45;5.28;;;;;;;24.71;62.16;99770.28;4957151;28;20046;-73
2023/08/15 04:48:38;;;;;;;7.60;5.05;;;;;;;24.92;61.54;99762.94;4974950;28;20046;-73
2023/08/15 04:51:04;;;;;;;9.02;5.20;;;;;;;25.14;60.84;99762.84;4973677;28;20041;-73
2023/08/15 04:53:32;;;;;;;7.70;5.10;;;;;;;25.40;60.15;99762.97;4975344;28;20054;-73
2023/08/15 04:55:57;;;;;;;8.70;5.50;;;;;;;25.56;59.46;99759.94;4961973;28;20408;-73
2023/08/15 04:58:52;;;;;;;7.93;5.63;;;;;;;25.89;58.17;99764.69;4961577;28;20061;-71
2023/08/15 05:01:26;;;;;;;8.20;5.32;;;;;;;25.99;57.89;99767.88;4980244;28;20041;-71
2023/08/15 05:04:17;;;;;;;7.07;5.22;;;;;;;26.15;57.26;99756.56;4978315;28;20052;-71
2023/08/15 05:06:44;;;;;;;6.18;5.57;;;;;;;26.32;57.38;99757.03;4978121;28;20042;-71
2023/08/15 05:09:09;;;;;;;7.43;5.53;;;;;;;26.48;56.32;99740.25;4960847;28;20048;-71
2023/08/15 05:11:35;;;;;;;10.07;5.38;;;;;;;26.71;56.05;99757.06;4960629;28;20597;-72
2023/08/15 05:14:01;;;;;;;6.60;5.22;;;;;;;27.02;55.74;99759.16;4943825;28;20057;-71
2023/08/15 05:16:53;;;;;;;7.00;5.50;;;;;;;27.27;54.00;99762.06;4977799;28;20053;-70
2023/08/15 05:19:19;;;;;;;10.95;5.82;;;;;;;27.67;53.71;99757.31;4976760;28;20050;-70
2023/08/15 05:21:46;;;;;;;8.05;5.47;;;;;;;28.14;53.08;99753.25;4977702;28;20420;-72
2023/08/15 05:24:12;;;;;;;5.38;4.88;;;;;;;28.49;51.44;99748.19;4977515;28;20527;-72
2023/08/15 05:26:41;;;;;;;6.95;5.18;;;;;;;28.59;50.24;99760.56;4959651;28;20054;-71
2023/08/15 05:29:36;;;;;;;8.30;5.43;;;;;;;28.82;50.06;99761.66;4979736;28;20408;-72
2023/08/15 05:32:04;;;;;;;7.53;4.70;;;;;;;29.01;49.86;99759.78;4959819;28;20042;-71
2023/08/15 05:34:29;;;;;;;7.43;5.47;;;;;;;29.23;49.40;99758.28;4977541;28;20538;-71
2023/08/15 05:36:58;;;;;;;8.85;4.90;;;;;;;29.37;48.14;99758.16;4959882;28;20049;-71
2023/08/15 05:39:25;;;;;;;7.55;4.72;;;;;;;29.66;47.90;99768.41;4975802;28;20058;-71
2023/08/15 05:41:52;;;;;;;5.65;4.78;;;;;;;29.60;46.80;99748.16;4973059;28;20520;-71
2023/08/15 05:44:19;;;;;;;8.02;4.55;;;;;;;29.37;47.73;99749.91;4956059;28;20054;-71
2023/08/15 05:46:45;;;;;;;7.13;4.80;;;;;;;29.65;47.48;99757.66;4957984;28;20042;-73
2023/08/15 05:49:12;;;;;;;9.18;5.03;;;;;;;29.67;46.74;99764.59;4956783;28;20049;-72
2023/08/15 05:51:37;;;;;;;8.27;4.88;;;;;;;29.40;46.69;99746.75;4940600;28;20449;-73
2023/08/15 05:54:28;;;;;;;8.23;4.45;;;;;;;29.53;46.92;99749.34;4960657;28;20057;-72
2023/08/15 05:56:56;;;;;;;7.57;4.78;;;;;;;30.09;45.62;99754.53;4957774;28;20531;-71
2023/08/15 05:59:26;;;;;;;7.18;4.32;;;;;;;31.06;44.02;99774.34;4957883;28;20493;-72
2023/08/15 06:01:58;;;;;;;5.72;4.47;;;;;;;31.84;41.78;99771.16;4956674;28;20378;-72
2023/08/15 06:04:29;;;;;;;7.32;4.55;;;;;;;32.57;40.15;99753.81;4945659;28;20053;-71
2023/08/15 06:06:54;;;;;;;10.27;4.88;;;;;;;33.25;38.92;99740.81;4977025;28;20045;-71
2023/08/15 06:09:23;;;;;;;9.23;5.03;;;;;;;34.05;37.79;99754.84;4976458;28;20419;-71
2023/08/15 06:11:50;;;;;;;6.55;5.18;;;;;;;34.64;35.91;99735.50;4958226;28;20538;-71
2023/08/15 06:14:19;;;;;;;7.80;5.32;;;;;;;35.00;34.91;99733.00;4975346;28;20049;-75
2023/08/15 06:16:44;;;;;;;9.02;5.10;;;;;;;35.56;34.53;99737.78;4959645;28;20042;-74
2023/08/15 06:19:09;;;;;;;5.25;4.72;;;;;;;35.87;33.21;99737.94;4961084;28;20061;-76
2023/08/15 06:21:35;;;;;;;10.25;5.65;;;;;;;35.99;33.20;99752.41;4964153;28;20060;-76
2023/08/15 06:24:01;;;;;;;6.40;4.93;;;;;;;35.97;32.56;99743.50;4958713;28;20408;-72
2023/08/15 06:26:28;;;;;;;7.22;4.75;;;;;;;36.01;32.43;99756.56;4974756;28;20057;-72
2023/08/15 06:28:53;;;;;;;5.53;5.03;;;;;;;36.46;32.26;99779.19;4942606;28;20054;-72
2023/08/15 06:31:22;;;;;;;8.25;4.80;;;;;;;37.23;31.04;99745.56;4975673;28;20046;-71
2023/08/15 06:34:15;;;;;;;6.60;5.43;;;;;;;38.54;29.99;99748.00;4975462;28;20057;-71
2023/08/15 06:36:41;;;;;;;7.82;5.05;;;;;;;39.55;28.88;99745.06;4977236;28;20045;-71
2023/08/15 06:39:07;;;;;;;6.60;5.38;;;;;;;40.49;27.56;99752.72;4975243;28;20669;-71
2023/08/15 06:41:34;;;;;;;7.38;5.47;;;;;;;41.20;26.60;99731.94;4976718;28;20046;-72
2023/08/15 06:44:28;;;;;;;5.80;5.22;;;;;;;41.89;25.51;99739.16;4963890;28;20057;-71
2023/08/15 06:46:57;;;;;;;6.68;5.20;;;;;;;42.40;24.95;99757.66;4955742;28;20042;-70
2023/08/15 06:49:22;;;;;;;11.52;6.72;;;;;;;42.65;24.44;99751.44;4956781;28;20053;-71
2023/08/15 06:51:47;;;;;;;7.10;5.72;;;;;;;42.77;24.18;99741.63;4971836;28;20042;-71
2023/08/15 06:54:14;;;;;;;6.53;5.53;;;;;;;42.54;24.29;99726.78;4955466;28;20039;-72
2023/08/15 06:56:39;;;;;;;6.25;5.70;;;;;;;42.20;23.78;99721.72;4957149;28;20493;-73
2023/08/15 06:59:08;;;;;;;7.20;5.65;;;;;;;42.32;24.15;99744.41;4956978;28;20049;-74
2023/08/15 07:02:02;;;;;;;7.57;6.88;;;;;;;43.02;23.09;99721.31;4955236;28;20053;-74
2023/08/15 07:04:28;;;;;;;7.10;6.47;;;;;;;42.61;23.73;99727.16;4939386;28;20054;-73
2023/08/15 07:06:58;;;;;;;6.43;5.82;;;;;;;42.53;23.85;99725.94;4975091;28;20480;-75
2023/08/15 07:09:24;;;;;;;6.70;6.07;;;;;;;41.89;24.21;99721.53;4976542;28;20046;-73
2023/08/15 07:11:56;;;;;;;7.05;5.85;;;;;;;41.38;24.32;99719.00;4975371;28;20050;-73
2023/08/15 07:14:21;;;;;;;6.95;6.35;;;;;;;41.76;24.28;99723.25;4976099;28;20046;-73
2023/08/15 07:16:49;;;;;;;6.40;5.80;;;;;;;42.38;23.91;99729.13;4996688;28;20406;-72
2023/08/15 07:19:15;;;;;;;8.50;6.90;;;;;;;42.41;23.84;99711.69;4986259;28;20052;-72
2023/08/15 07:21:41;;;;;;;7.97;6.47;;;;;;;42.75;23.75;99733.53;4976333;28;20048;-72
2023/08/15 07:24:11;;;;;;;7.13;6.15;;;;;;;43.34;23.33;99723.00;4984396;28;20046;-72
2023/08/15 07:26:37;;;;;;;7.22;6.63;;;;;;;44.02;22.50;99711.09;4977056;28;20057;-71
2023/08/15 07:29:03;;;;;;;7.38;6.68;;;;;;;44.81;21.68;99721.19;4977025;28;20151;-72
2023/08/15 07:31:29;;;;;;;8.23;7.45;;;;;;;45.15;21.31;99723.91;4976377;28;20038;-72
2023/08/15 07:33:54;;;;;;;10.40;7.32;;;;;;;44.52;21.75;99719.06;4973886;28;20046;-71
2023/08/15 07:36:20;;;;;;;7.90;6.70;;;;;;;44.40;22.28;99725.34;4974088;28;20050;-71
2023/08/15 07:39:13;;;;;;;7.75;7.15;;;;;;;45.16;21.68;99727.53;4974435;28;20049;-73
2023/08/15 07:42:07;;;;;;;7.28;6.68;;;;;;;43.22;22.53;99714.34;4974927;28;20049;-72
2023/08/15 07:44:33;;;;;;;7.57;6.70;;;;;;;41.45;24.48;99723.03;4973573;28;20409;-73
2023/08/15 07:46:58;;;;;;;6.55;6.03;;;;;;;40.44;25.40;99725.69;4975548;28;20048;-72
2023/08/15 07:49:27;;;;;;;7.05;6.03;;;;;;;40.79;25.53;99723.44;4975521;28;20049;-72
2023/08/15 07:51:56;;;;;;;7.20;6.30;;;;;;;41.76;24.57;99723.25;4975385;28;20049;-71
2023/08/15 07:54:21;;;;;;;7.43;6.38;;;;;;;42.80;23.70;99740.97;4973993;28;20068;-70
2023/08/15 07:56:47;;;;;;;6.70;6.20;;;;;;;43.58;22.69;99719.75;4975392;28;20057;-72
2023/08/15 07:59:14;;;;;;;6.93;6.38;;;;;;;43.87;22.34;99724.78;4975678;28;20046;-71
2023/08/15 08:01:41;;;;;;;6.90;6.30;;;;;;;44.10;22.98;99717.91;4975310;28;20049;-73
2023/08/15 08:04:07;;;;;;;7.80;7.07;;;;;;;43.80;22.92;99712.03;4974799;28;20045;-72
2023/08/15 08:06:34;;;;;;;6.50;6.00;;;;;;;43.59;23.07;99701.75;4974071;28;20060;-73
2023/08/15 08:09:04;;;;;;;15.93;6.97;;;;;;;42.42;23.97;99718.13;4974626;28;20050;-75
2023/08/15 08:11:35;;;;;;;7.18;6.53;;;;;;;41.00;25.62;99721.94;4958009;28;20428;-77
2023/08/15 08:14:10;;;;;;;12.82;7.07;;;;;;;40.31;26.36;99708.84;4975001;28;20400;-76
2023/08/15 08:16:35;;;;;;;10.95;6.30;;;;;;;39.61;27.07;99703.16;4957800;28;20053;-77
2023/08/15 08:19:00;;;;;;;7.30;6.20;;;;;;;39.04;27.83;99700.19;4976143;28;20045;-76
2023/08/15 08:21:28;;;;;;;7.80;6.32;;;;;;;38.97;28.51;99699.69;4975869;28;20042;-76
2023/08/15 08:23:55;;;;;;;10.88;7.28;;;;;;;38.72;28.10;99697.13;4974078;28;20056;-75
2023/08/15 08:26:24;;;;;;;6.72;6.05;;;;;;;38.14;28.89;99700.66;4961753;28;20413;-75
2023/08/15 08:28:57;;;;;;;6.68;5.65;;;;;;;38.97;28.22;99705.25;4958538;28;20061;-76
2023/08/15 08:34:38;;;;;;;8.32;6.65;;;;;;;41.97;24.73;99702.06;4962530;28;20038;-76
2023/08/15 08:37:05;;;;;;;7.28;6.13;;;;;;;43.29;23.42;99709.09;4959409;28;20058;-75
2023/08/15 08:39:30;;;;;;;8.65;6.55;;;;;;;44.01;22.68;99703.03;4960632;28;20042;-77
2023/08/15 08:42:00;;;;;;;8.40;7.13;;;;;;;43.03;22.84;99697.72;4961096;28;20045;-76
2023/08/15 08:44:30;;;;;;;6.93;6.25;;;;;;;41.61;24.15;99704.81;4974732;28;20041;-74
2023/08/15 08:46:56;;;;;;;6.30;5.72;;;;;;;40.06;25.94;99712.88;4979289;28;20050;-74
2023/08/15 08:52:18;;;;;;;10.38;6.32;;;;;;;37.54;29.18;99687.88;4977842;28;20531;-74
2023/08/15 08:54:44;;;;;;;7.10;6.28;;;;;;;36.44;30.77;99709.19;4977990;28;20041;-75
2023/08/15 08:57:12;;;;;;;7.00;5.50;;;;;;;35.33;32.44;99709.69;4977662;28;20049;-75
2023/08/15 08:59:46;;;;;;;7.43;5.90;;;;;;;34.30;34.48;99662.13;4976896;28;20424;-74
2023/08/15 09:02:20;;;;;;;9.70;5.43;;;;;;;33.31;36.13;99703.84;4979098;28;20041;-74
2023/08/15 09:04:51;;;;;;;7.43;5.50;;;;;;;32.68;36.68;99700.44;4977983;28;20045;-74
2023/08/15 09:07:18;;;;;;;5.70;5.15;;;;;;;34.45;35.07;99698.22;4977098;28;20038;-74
2023/08/15 09:09:43;;;;;;;7.53;5.47;;;;;;;37.40;31.16;99696.00;4978229;28;20064;-74
2023/08/15 09:12:39;;;;;;;6.25;5.65;;;;;;;41.06;27.15;99709.53;4977394;28;20041;-74
2023/08/15 09:15:09;;;;;;;6.88;6.28;;;;;;;43.46;24.16;99703.50;4976394;28;20038;-74
2023/08/15 09:18:07;;;;;;;7.32;6.72;;;;;;;45.67;21.79;99720.88;4976995;28;20054;-74
2023/08/15 09:20:58;;;;;;;8.52;7.63;;;;;;;47.89;20.03;99715.25;4976178;28;20061;-74
2023/08/15 09:23:28;;;;;;;9.68;8.98;;;;;;;48.23;19.50;99696.09;4976572;28;20046;-74
2023/08/15 09:25:55;;;;;;;10.32;9.60;;;;;;;48.10;19.50;99697.31;4977426;28;20045;-73
2023/08/15 09:28:22;;;;;;;10.80;9.68;;;;;;;47.50;19.52;99702.69;4963036;28;20043;-78
2023/08/15 09:30:53;;;;;;;10.68;9.88;;;;;;;47.00;19.63;99694.53;4959420;28;20057;-77
2023/08/15 09:33:21;;;;;;;12.18;11.32;;;;;;;46.66;20.03;99684.44;4940513;28;20054;-78
2023/08/15 09:35:48;;;;;;;12.68;11.73;;;;;;;47.03;19.65;99687.34;4956518;28;20050;-78
2023/08/15 09:44:03;;;;;;;11.50;10.60;;;;;;;45.66;20.84;99674.13;4953891;28;20500;-78
2023/08/15 09:46:31;;;;;;;10.88;10.07;;;;;;;45.13;20.96;99686.03;4975637;28;20061;-77
2023/08/15 09:49:29;;;;;;;11.18;8.35;;;;;;;44.77;21.69;99681.66;4978242;28;20049;-77
2023/08/15 09:55:35;;;;;;;9.07;8.25;;;;;;;41.89;23.99;99687.94;4977861;28;20049;-76
2023/08/15 09:58:00;;;;;;;8.45;7.63;;;;;;;40.37;25.64;99674.13;4977513;28;20042;-77
2023/08/15 10:03:32;;;;;;;7.47;6.68;;;;;;;38.54;27.85;99684.75;4977359;28;20057;-77
2023/08/15 10:06:04;;;;;;;8.07;7.25;;;;;;;37.16;30.37;99685.78;4960514;28;20038;-75
2023/08/15 10:08:38;;;;;;;7.18;6.35;;;;;;;35.98;31.55;99690.53;4944935;28;20058;-72
2023/08/15 10:11:13;;;;;;;11.25;6.80;;;;;;;34.99;33.05;99687.03;4976103;28;20041;-72
2023/08/15 10:14:30;;;;;;;6.00;5.47;;;;;;;33.85;33.90;99688.25;4977617;28;20499;-72
2023/08/15 10:16:59;;;;;;;9.30;6.40;;;;;;;33.49;34.83;99682.28;4975537;28;20965;-73
2023/08/15 10:19:30;;;;;;;11.73;6.65;;;;;;;34.04;34.50;99686.78;4973458;28;20045;-73
2023/08/15 10:21:56;;;;;;;8.73;6.20;;;;;;;34.82;33.39;99673.34;4959580;28;20046;-72
2023/08/15 10:24:23;;;;;;;6.43;5.80;;;;;;;35.74;32.49;99677.41;4962454;28;20046;-72
2023/08/15 10:26:51;;;;;;;6.35;5.72;;;;;;;36.12;31.69;99674.13;4968548;28;20429;-74
2023/08/15 10:29:56;;;;;;;6.53;5.60;;;;;;;35.98;32.26;99676.66;4966543;28;20054;-71
2023/08/15 10:32:25;;;;;;;6.18;5.57;;;;;;;35.10;33.42;99684.06;4957140;28;20041;-72
2023/08/15 10:34:55;;;;;;;7.28;5.93;;;;;;;34.58;34.31;99675.63;4970320;28;20053;-70
2023/08/15 10:38:20;;;;;;;6.97;5.40;;;;;;;34.36;34.73;99674.91;4954330;28;20469;-72
2023/08/15 10:41:00;;;;;;;11.10;6.25;;;;;;;33.54;36.49;99682.31;4962489;28;20053;-72
2023/08/15 10:43:25;;;;;;;9.45;5.72;;;;;;;32.90;36.28;99669.28;4972105;28;20511;-72
2023/08/15 10:45:57;;;;;;;7.75;5.43;;;;;;;32.38;37.01;99684.22;4972134;28;20048;-71
2023/08/15 10:48:51;;;;;;;12.35;5.38;;;;;;;32.01;38.14;99677.47;4968712;28;20046;-71
2023/08/15 10:51:20;;;;;;;7.90;6.07;;;;;;;31.30;39.10;99676.03;4959849;28;20430;-71
2023/08/15 10:53:51;;;;;;;13.30;6.73;;;;;;;31.00;39.70;99670.69;4966636;28;20072;-71
2023/08/15 10:56:43;;;;;;;7.30;5.60;;;;;;;30.94;39.97;99677.97;4957478;28;20049;-72
2023/08/15 10:59:14;;;;;;;12.65;5.70;;;;;;;30.51;40.28;99650.81;4966955;28;20054;-71
2023/08/15 11:01:43;;;;;;;7.00;5.38;;;;;;;30.28;40.71;99684.63;4942162;28;20424;-74
2023/08/15 11:04:19;;;;;;;10.88;4.90;;;;;;;30.03;40.66;99663.88;4970769;28;20422;-75
2023/08/15 11:06:48;;;;;;;6.97;5.28;;;;;;;29.76;40.84;99672.50;4965814;28;20041;-75
2023/08/15 11:12:07;;;;;;;7.72;4.97;;;;;;;29.41;41.79;99677.00;4949212;28;20048;-74
2023/08/15 11:14:32;;;;;;;6.55;4.45;;;;;;;29.25;41.31;99668.28;4972509;28;20064;-75
2023/08/15 11:17:00;;;;;;;8.93;5.18;;;;;;;29.05;41.99;99673.19;4969037;28;20046;-73
2023/08/15 11:19:25;;;;;;;6.40;4.75;;;;;;;28.84;41.53;99666.22;4974905;28;20045;-73
2023/08/15 11:22:16;;;;;;;5.78;4.13;;;;;;;28.64;42.23;99682.03;4974381;28;20096;-73
2023/08/15 11:24:44;;;;;;;5.35;4.32;;;;;;;28.49;42.57;99684.28;4975812;28;20481;-75
2023/08/15 11:27:10;;;;;;;7.93;4.75;;;;;;;28.46;43.20;99674.59;4973622;28;20555;-74
2023/08/15 11:29:36;;;;;;;8.68;4.82;;;;;;;28.58;43.55;99671.09;4975361;28;20049;-73
2023/08/15 11:34:54;;;;;;;6.18;4.80;;;;;;;28.77;42.61;99692.03;4966375;28;20412;-75
2023/08/15 11:37:23;;;;;;;5.70;4.45;;;;;;;28.76;42.99;99671.16;4970157;28;20053;-75
2023/08/15 11:39:55;;;;;;;4.95;4.20;;;;;;;28.68;42.23;99676.91;4954027;28;20061;-76
2023/08/15 11:42:21;;;;;;;4.85;4.07;;;;;;;28.44;41.87;99678.63;4935705;28;20848;-74
2023/08/15 11:45:17;;;;;;;5.50;4.13;;;;;;;28.23;41.98;99676.25;4969165;28;20053;-74
2023/08/15 11:48:05;;;;;;;4.18;3.78;;;;;;;28.12;42.31;99669.56;4971955;28;20034;-75
2023/08/15 11:51:02;;;;;;;6.13;4.20;;;;;;;27.80;42.21;99679.69;4969798;28;20511;-75
2023/08/15 11:53:28;;;;;;;12.50;4.05;;;;;;;27.58;42.10;99675.63;4969441;28;20056;-75
2023/08/15 11:55:54;;;;;;;5.40;4.28;;;;;;;27.46;42.28;99673.53;4971040;28;20038;-75
2023/08/15 11:58:31;;;;;;;7.13;4.30;;;;;;;27.40;43.16;99668.09;4972243;28;20056;-78
2023/08/15 12:01:07;;;;;;;6.35;4.13;;;;;;;27.33;43.06;99678.22;4964979;28;20056;-75
2023/08/15 12:06:27;;;;;;;8.60;4.00;;;;;;;27.17;43.27;99673.25;4975114;28;20050;-74
2023/08/15 12:08:52;;;;;;;6.50;3.70;;;;;;;27.09;43.09;99683.34;4961590;28;20056;-73
2023/08/15 12:11:20;;;;;;;4.93;3.72;;;;;;;27.01;42.76;99680.88;4977038;28;20053;-71
2023/08/15 12:13:46;;;;;;;5.40;3.67;;;;;;;26.94;42.06;99693.72;4979000;28;20042;-73
2023/08/15 12:16:12;;;;;;;10.90;4.18;;;;;;;26.85;42.48;99680.47;4959191;28;20045;-73
2023/08/15 12:18:39;;;;;;;2.90;2.70;;;;;;;26.75;41.44;99675.41;4974499;28;20046;-74
2023/08/15 12:21:10;;;;;;;4.30;3.10;;;;;;;26.62;41.39;99691.88;4958063;28;20049;-72
2023/08/15 12:24:01;;;;;;;5.00;3.40;;;;;;;26.66;40.58;99687.63;4969518;28;20493;-69
2023/08/15 12:32:16;;;;;;;4.95;2.83;;;;;;;26.27;40.38;99683.88;4950750;28;20061;-72